createdAt,value
2018-05-01T00:00:14.243Z,3.13
2018-05-01T00:02:41.901Z,2.70
2018-05-01T00:05:09.556Z,2.80
2018-05-01T00:07:37.204Z,2.60
2018-05-01T00:10:04.887Z,3.30
2018-05-01T00:12:32.482Z,2.80
2018-05-01T00:15:00.154Z,2.80
2018-05-01T00:17:27.832Z,3.10
2018-05-01T00:19:55.551Z,3.20
2018-05-01T00:22:23.192Z,2.80
2018-05-01T00:24:51.364Z,3.30
2018-05-01T00:27:19.319Z,2.90
2018-05-01T00:29:46.992Z,2.87
2018-05-01T00:32:14.666Z,2.97
2018-05-01T00:34:42.328Z,2.73
2018-05-01T00:37:10.799Z,3.60
2018-05-01T00:39:38.463Z,2.60
2018-05-01T00:42:06.058Z,2.40
2018-05-01T00:44:33.784Z,2.57
2018-05-01T00:47:01.455Z,3.07
2018-05-01T00:49:29.843Z,2.80
2018-05-01T00:51:57.499Z,2.33
2018-05-01T00:54:25.145Z,2.90
2018-05-01T00:56:52.910Z,2.73
2018-05-01T00:59:20.577Z,2.87
2018-05-01T01:01:48.597Z,2.90
2018-05-01T01:04:17.027Z,2.37
2018-05-01T01:06:44.705Z,2.70
2018-05-01T01:09:13.176Z,3.13
2018-05-01T01:11:41.541Z,2.60
2018-05-01T01:14:09.287Z,3.10
2018-05-01T01:16:37.599Z,2.83
2018-05-01T01:19:05.258Z,2.97
2018-05-01T01:21:32.890Z,2.80
2018-05-01T01:24:00.531Z,2.97
2018-05-01T01:26:29.173Z,2.43
2018-05-01T01:28:56.978Z,2.70
2018-05-01T01:31:24.621Z,2.50
2018-05-01T01:33:53.178Z,2.63
2018-05-01T01:36:20.318Z,3.00
2018-05-01T01:38:47.481Z,2.60
2018-05-01T01:41:15.507Z,2.90
2018-05-01T01:43:42.594Z,2.90
2018-05-01T01:46:09.754Z,2.57
2018-05-01T01:48:37.619Z,2.87
2018-05-01T01:51:04.765Z,2.70
2018-05-01T01:53:31.894Z,2.90
2018-05-01T01:55:59.073Z,3.07
2018-05-01T01:58:26.219Z,3.30
2018-05-01T02:00:54.176Z,2.50
2018-05-01T02:03:21.335Z,2.60
2018-05-01T02:05:49.260Z,2.80
2018-05-01T02:08:16.398Z,2.80
2018-05-01T02:10:43.603Z,3.43
2018-05-01T02:13:11.466Z,2.90
2018-05-01T02:15:39.735Z,2.93
2018-05-01T02:18:06.905Z,2.50
2018-05-01T02:20:35.776Z,2.20
2018-05-01T02:23:02.931Z,2.30
2018-05-01T02:25:30.864Z,2.13
2018-05-01T02:27:58.457Z,2.80
2018-05-01T02:30:25.587Z,2.73
2018-05-01T02:32:52.705Z,2.30
2018-05-01T02:35:19.809Z,2.37
2018-05-01T02:37:46.926Z,2.30
2018-05-01T02:40:14.114Z,2.30
2018-05-01T02:42:42.094Z,2.73
2018-05-01T02:45:09.965Z,2.60
2018-05-01T02:47:37.840Z,2.57
2018-05-01T02:50:05.829Z,2.90
2018-05-01T02:52:33.725Z,2.63
2018-05-01T02:55:00.820Z,2.77
2018-05-01T02:57:28.717Z,3.13
2018-05-01T02:59:55.802Z,2.77
2018-05-01T03:02:23.015Z,2.40
2018-05-01T03:04:50.116Z,2.77
2018-05-01T03:07:18.744Z,3.00
2018-05-01T03:09:45.904Z,3.00
2018-05-01T03:12:13.131Z,2.87
2018-05-01T03:14:41.375Z,2.87
2018-05-01T03:17:08.482Z,2.90
2018-05-01T03:19:35.676Z,2.83
2018-05-01T03:22:02.827Z,3.03
2018-05-01T03:24:29.954Z,3.00
2018-05-01T03:26:57.065Z,2.97
2018-05-01T03:29:25.005Z,2.53
2018-05-01T03:31:53.657Z,2.57
2018-05-01T03:34:20.740Z,2.77
2018-05-01T03:36:48.621Z,2.97
2018-05-01T03:39:15.848Z,3.10
2018-05-01T03:41:42.990Z,3.43
2018-05-01T03:44:10.155Z,2.60
2018-05-01T03:46:37.299Z,3.10
2018-05-01T03:49:04.441Z,2.90
2018-05-01T03:51:31.564Z,2.63
2018-05-01T03:53:58.655Z,2.93
2018-05-01T03:56:26.598Z,3.20
2018-05-01T03:58:53.666Z,2.60
2018-05-01T04:01:21.710Z,2.63
2018-05-01T04:03:48.857Z,3.17
2018-05-01T04:06:16.962Z,3.03
2018-05-01T04:08:44.861Z,3.00
2018-05-01T04:11:12.773Z,2.70
2018-05-01T04:13:39.924Z,2.93
2018-05-01T04:16:07.057Z,2.93
2018-05-01T04:18:34.145Z,2.30
2018-05-01T04:21:02.040Z,2.50
2018-05-01T04:23:29.952Z,2.90
2018-05-01T04:25:57.059Z,2.97
2018-05-01T04:28:24.973Z,2.57
2018-05-01T04:30:52.478Z,3.00
2018-05-01T04:33:20.541Z,2.80
2018-05-01T04:35:47.664Z,2.90
2018-05-01T04:38:16.348Z,3.03
2018-05-01T04:40:43.502Z,4.43
2018-05-01T04:43:10.653Z,2.33
2018-05-01T04:45:39.255Z,2.60
2018-05-01T04:48:07.171Z,2.60
2018-05-01T04:50:34.291Z,5.23
2018-05-01T04:53:02.269Z,3.27
2018-05-01T04:55:29.378Z,3.40
2018-05-01T04:57:57.250Z,2.80
2018-05-01T05:00:25.156Z,2.70
2018-05-01T05:02:53.129Z,2.50
2018-05-01T05:05:20.298Z,2.83
2018-05-01T05:07:47.357Z,2.70
2018-05-01T05:10:14.477Z,3.00
2018-05-01T05:12:42.389Z,3.30
2018-05-01T05:15:09.562Z,2.93
2018-05-01T05:17:37.463Z,3.00
2018-05-01T05:20:05.379Z,2.93
2018-05-01T05:22:32.541Z,2.87
2018-05-01T05:24:59.672Z,4.53
2018-05-01T05:27:26.836Z,3.87
2018-05-01T05:29:53.986Z,3.00
2018-05-01T05:32:21.895Z,3.20
2018-05-01T05:34:48.993Z,2.90
2018-05-01T05:37:16.209Z,2.87
2018-05-01T05:39:44.312Z,3.63
2018-05-01T05:42:11.506Z,3.40
2018-05-01T05:44:38.620Z,3.00
2018-05-01T05:47:05.813Z,3.23
2018-05-01T05:49:33.737Z,3.13
2018-05-01T05:52:00.895Z,3.20
2018-05-01T05:54:28.186Z,3.20
2018-05-01T05:56:55.294Z,3.00
2018-05-01T05:59:22.420Z,3.20
2018-05-01T06:01:49.520Z,3.70
2018-05-01T06:04:17.435Z,3.73
2018-05-01T06:06:45.173Z,3.00
2018-05-01T06:09:12.356Z,3.17
2018-05-01T06:11:39.510Z,3.27
2018-05-01T06:14:06.699Z,5.80
2018-05-01T06:16:34.618Z,3.40
2018-05-01T06:19:01.969Z,3.10
2018-05-01T06:21:29.207Z,3.00
2018-05-01T06:23:56.486Z,3.07
2018-05-01T06:26:23.664Z,3.63
2018-05-01T06:28:51.567Z,2.70
2018-05-01T06:31:18.774Z,2.77
2018-05-01T06:33:46.580Z,2.80
2018-05-01T06:36:13.740Z,3.10
2018-05-01T06:38:41.692Z,2.90
2018-05-01T06:41:09.604Z,2.10
2018-05-01T06:43:36.749Z,2.40
2018-05-01T06:46:03.831Z,2.50
2018-05-01T06:48:30.949Z,2.83
2018-05-01T06:50:58.070Z,2.23
2018-05-01T06:53:25.995Z,2.50
2018-05-01T06:55:53.127Z,2.63
2018-05-01T06:58:20.335Z,2.23
2018-05-01T07:00:48.269Z,2.60
2018-05-01T07:03:16.178Z,2.23
2018-05-01T07:05:43.681Z,1.90
2018-05-01T07:08:10.842Z,2.03
2018-05-01T07:10:38.746Z,2.70
2018-05-01T07:13:05.974Z,2.03
2018-05-01T07:15:33.924Z,1.90
2018-05-01T07:18:01.127Z,2.10
2018-05-01T07:20:29.360Z,1.60
2018-05-01T07:22:57.247Z,2.40
2018-05-01T07:25:25.111Z,1.53
2018-05-01T07:27:53.122Z,1.40
2018-05-01T07:30:20.225Z,1.40
2018-05-01T07:33:09.552Z,1.40
2018-05-01T07:35:36.717Z,0.97
2018-05-01T07:38:05.589Z,1.50
2018-05-01T07:40:33.114Z,1.43
2018-05-01T07:43:01.035Z,1.10
2018-05-01T07:45:28.183Z,1.37
2018-05-01T07:47:55.376Z,1.47
2018-05-01T07:50:23.327Z,1.60
2018-05-01T07:52:51.218Z,1.53
2018-05-01T07:55:19.143Z,1.30
2018-05-01T07:57:46.355Z,1.57
2018-05-01T08:00:13.520Z,1.20
2018-05-01T08:02:40.593Z,1.60
2018-05-01T08:05:07.785Z,1.27
2018-05-01T08:07:34.932Z,0.90
2018-05-01T08:10:02.074Z,1.00
2018-05-01T08:12:29.310Z,0.90
2018-05-01T08:14:56.477Z,1.20
2018-05-01T08:17:24.403Z,1.60
2018-05-01T08:19:51.553Z,1.40
2018-05-01T08:22:18.853Z,1.20
2018-05-01T08:24:45.980Z,1.13
2018-05-01T08:27:13.203Z,1.30
2018-05-01T08:29:40.370Z,1.30
2018-05-01T08:32:07.523Z,1.30
2018-05-01T08:34:34.774Z,1.53
2018-05-01T08:37:01.919Z,1.13
2018-05-01T08:39:29.221Z,1.23
2018-05-01T08:41:56.340Z,1.00
2018-05-01T08:44:24.044Z,1.20
2018-05-01T08:46:51.149Z,1.60
2018-05-01T08:49:18.335Z,1.00
2018-05-01T08:51:45.441Z,1.50
2018-05-01T08:54:12.560Z,1.30
2018-05-01T08:56:39.695Z,1.07
2018-05-01T08:59:06.781Z,1.27
2018-05-01T09:01:33.916Z,1.10
2018-05-01T09:04:01.122Z,1.47
2018-05-01T09:06:28.951Z,1.47
2018-05-01T09:08:56.106Z,1.33
2018-05-01T09:11:23.220Z,1.67
2018-05-01T09:13:50.355Z,1.67
2018-05-01T09:16:17.432Z,1.50
2018-05-01T09:18:44.495Z,1.53
2018-05-01T09:21:11.652Z,1.40
2018-05-01T09:23:38.960Z,1.50
2018-05-01T09:26:06.386Z,1.30
2018-05-01T09:28:33.542Z,1.40
2018-05-01T09:31:00.650Z,1.53
2018-05-01T09:33:27.822Z,1.60
2018-05-01T09:35:54.904Z,2.37
2018-05-01T09:38:22.056Z,2.10
2018-05-01T09:40:49.135Z,1.60
2018-05-01T09:43:16.420Z,1.90
2018-05-01T09:45:43.544Z,1.87
2018-05-01T09:48:10.660Z,1.77
2018-05-01T09:50:37.759Z,2.10
2018-05-01T09:53:05.502Z,1.70
2018-05-01T09:55:33.083Z,1.60
2018-05-01T09:58:00.674Z,2.10
2018-05-01T10:00:28.285Z,2.00
2018-05-01T10:02:55.965Z,2.33
2018-05-01T10:05:23.740Z,1.93
2018-05-01T10:07:52.137Z,2.30
2018-05-01T10:10:42.945Z,1.53
2018-05-01T10:13:10.670Z,1.90
2018-05-01T10:15:38.395Z,2.20
2018-05-01T10:18:06.045Z,1.83
2018-05-01T10:20:33.759Z,1.97
2018-05-01T10:23:02.341Z,1.97
2018-05-01T10:25:30.010Z,3.60
2018-05-01T10:27:57.659Z,1.93
2018-05-01T10:30:25.347Z,1.90
2018-05-01T10:32:52.994Z,2.27
2018-05-01T10:35:20.688Z,1.53
2018-05-01T10:37:49.085Z,2.33
2018-05-01T10:43:09.242Z,2.70
2018-05-01T10:45:36.912Z,2.30
2018-05-01T10:48:04.669Z,2.27
2018-05-01T10:50:32.334Z,2.03
2018-05-01T10:53:00.320Z,1.90
2018-05-01T10:55:28.002Z,2.10
2018-05-01T10:57:55.677Z,2.10
2018-05-01T11:00:23.293Z,1.97
2018-05-01T11:02:50.935Z,2.10
2018-05-01T11:05:19.041Z,2.00
2018-05-01T11:07:46.708Z,2.10
2018-05-01T11:10:14.346Z,2.00
2018-05-01T11:12:42.201Z,1.87
2018-05-01T11:15:09.889Z,1.90
2018-05-01T11:17:38.295Z,1.97
2018-05-01T11:20:06.020Z,2.13
2018-05-01T11:22:33.679Z,2.00
2018-05-01T11:25:01.300Z,2.40
2018-05-01T11:27:28.896Z,2.00
2018-05-01T11:29:56.537Z,1.80
2018-05-01T11:32:24.452Z,2.13
2018-05-01T11:34:52.156Z,1.80
2018-05-01T11:37:19.755Z,2.60
2018-05-01T11:39:47.497Z,2.10
2018-05-01T11:42:15.071Z,1.97
2018-05-01T11:44:42.741Z,1.83
2018-05-01T11:47:10.425Z,2.20
2018-05-01T11:49:38.015Z,1.87
2018-05-01T11:52:05.697Z,2.30
2018-05-01T11:54:33.300Z,2.17
2018-05-01T11:57:00.944Z,2.27
2018-05-01T11:59:28.621Z,2.50
2018-05-01T12:01:56.280Z,2.33
2018-05-01T12:04:23.975Z,3.53
2018-05-01T12:06:51.576Z,2.40
2018-05-01T12:09:19.269Z,2.67
2018-05-01T12:11:47.036Z,2.43
2018-05-01T12:14:15.409Z,2.40
2018-05-01T12:16:43.122Z,2.93
2018-05-01T12:19:10.761Z,2.67
2018-05-01T12:21:38.417Z,2.70
2018-05-01T12:24:06.059Z,2.60
2018-05-01T12:26:33.723Z,2.57
2018-05-01T12:29:01.496Z,2.80
2018-05-01T12:31:29.253Z,3.57
2018-05-01T12:33:56.995Z,2.83
2018-05-01T12:36:24.884Z,2.90
2018-05-01T12:38:52.752Z,2.97
2018-05-01T12:41:21.243Z,2.80
2018-05-01T12:43:49.023Z,3.07
2018-05-01T12:46:16.750Z,3.00
2018-05-01T12:48:44.480Z,3.23
2018-05-01T12:51:12.160Z,3.43
2018-05-01T12:53:39.882Z,2.93
2018-05-01T12:56:07.545Z,3.00
2018-05-01T12:58:35.162Z,3.17
2018-05-01T13:01:02.926Z,3.33
2018-05-01T13:03:30.544Z,3.50
2018-05-01T13:05:58.387Z,4.13
2018-05-01T13:08:26.027Z,3.83
2018-05-01T13:10:54.511Z,4.20
2018-05-01T13:13:22.577Z,3.27
2018-05-01T13:15:50.338Z,3.90
2018-05-01T13:18:18.015Z,3.63
2018-05-01T13:20:46.481Z,3.27
2018-05-01T13:23:14.162Z,3.33
2018-05-01T13:25:42.638Z,3.80
2018-05-01T13:28:10.302Z,3.30
2018-05-01T13:30:38.657Z,3.43
2018-05-01T13:33:06.331Z,3.43
2018-05-01T13:35:34.709Z,3.53
2018-05-01T13:38:02.367Z,3.50
2018-05-01T13:40:30.036Z,2.80
2018-05-01T13:42:57.694Z,3.23
2018-05-01T13:45:25.400Z,3.20
2018-05-01T13:47:53.020Z,3.37
2018-05-01T13:50:20.666Z,3.23
2018-05-01T13:52:48.443Z,3.77
2018-05-01T13:55:16.139Z,3.60
2018-05-01T13:57:43.773Z,3.00
2018-05-01T14:00:11.433Z,3.50
2018-05-01T14:02:39.209Z,3.60
2018-05-01T14:05:07.569Z,3.00
2018-05-01T14:07:35.467Z,3.47
2018-05-01T14:10:03.183Z,3.37
2018-05-01T14:12:30.846Z,3.87
2018-05-01T14:14:58.536Z,5.97
2018-05-01T14:17:26.206Z,3.83
2018-05-01T14:19:54.645Z,3.60
2018-05-01T14:22:22.339Z,4.23
2018-05-01T14:24:50.098Z,3.77
2018-05-01T14:27:19.120Z,4.17
2018-05-01T14:29:46.778Z,4.20
2018-05-01T14:32:14.532Z,4.10
2018-05-01T14:34:42.383Z,3.57
2018-05-01T14:37:10.065Z,3.90
2018-05-01T14:39:37.921Z,4.40
2018-05-01T14:42:05.749Z,4.77
2018-05-01T14:44:33.534Z,3.80
2018-05-01T14:47:01.308Z,4.20
2018-05-01T14:49:29.124Z,3.93
2018-05-01T14:51:56.751Z,4.10
2018-05-01T14:54:24.852Z,4.00
2018-05-01T14:56:52.508Z,4.20
2018-05-01T14:59:20.496Z,3.50
2018-05-01T15:01:48.530Z,4.10
2018-05-01T15:04:16.487Z,3.80
2018-05-01T15:06:44.261Z,4.00
2018-05-01T15:09:11.994Z,3.97
2018-05-01T15:11:39.722Z,4.37
2018-05-01T15:14:07.390Z,3.87
2018-05-01T15:16:35.136Z,3.97
2018-05-01T15:19:02.855Z,3.67
2018-05-01T15:21:30.627Z,3.60
2018-05-01T15:23:58.374Z,4.07
2018-05-01T15:26:26.448Z,3.57
2018-05-01T15:28:54.138Z,5.93
2018-05-01T15:31:22.329Z,4.47
2018-05-01T15:33:49.960Z,3.93
2018-05-01T15:36:17.648Z,3.47
2018-05-01T15:38:45.308Z,4.33
2018-05-01T15:41:12.914Z,3.90
2018-05-01T15:43:40.645Z,3.73
2018-05-01T15:46:08.317Z,4.00
2018-05-01T15:48:35.983Z,3.13
2018-05-01T15:51:03.758Z,3.70
2018-05-01T15:53:31.472Z,3.53
2018-05-01T15:56:00.002Z,3.33
2018-05-01T15:58:27.766Z,3.60
2018-05-01T16:00:55.448Z,3.73
2018-05-01T16:03:24.725Z,4.20
2018-05-01T16:05:53.514Z,3.87
2018-05-01T16:08:21.569Z,3.00
2018-05-01T16:10:49.176Z,3.57
2018-05-01T16:13:17.186Z,3.60
2018-05-01T16:15:44.882Z,3.63
2018-05-01T16:18:17.314Z,3.20
2018-05-01T16:20:44.992Z,3.57
2018-05-01T16:23:12.770Z,3.40
2018-05-01T16:25:40.525Z,4.37
2018-05-01T16:28:09.045Z,3.30
2018-05-01T16:30:36.852Z,3.60
2018-05-01T16:33:04.863Z,3.10
2018-05-01T16:35:33.241Z,3.90
2018-05-01T16:38:00.837Z,3.90
2018-05-01T16:40:28.450Z,3.10
2018-05-01T16:42:56.076Z,2.87
2018-05-01T16:45:23.885Z,4.00
2018-05-01T16:47:51.846Z,3.40
2018-05-01T16:50:19.648Z,3.30
2018-05-01T16:52:53.552Z,3.93
2018-05-01T16:55:21.398Z,3.70
2018-05-01T16:57:49.249Z,3.33
2018-05-01T17:00:17.032Z,4.67
2018-05-01T17:02:44.700Z,3.77
2018-05-01T17:05:12.556Z,3.80
2018-05-01T17:07:40.529Z,4.17
2018-05-01T17:10:09.324Z,3.50
2018-05-01T17:12:37.081Z,3.33
2018-05-01T17:15:05.277Z,3.87
2018-05-01T17:17:33.129Z,3.30
2018-05-01T17:20:01.094Z,3.50
2018-05-01T17:22:29.172Z,3.70
2018-05-01T17:24:57.034Z,3.30
2018-05-01T17:27:24.891Z,3.60
2018-05-01T17:29:53.092Z,3.50
2018-05-01T17:32:20.945Z,3.20
2018-05-01T17:34:49.906Z,3.33
2018-05-01T17:37:17.936Z,5.00
2018-05-01T17:39:45.891Z,3.90
2018-05-01T17:42:13.749Z,3.00
2018-05-01T17:44:41.609Z,3.73
2018-05-01T17:47:09.421Z,3.73
2018-05-01T17:49:37.070Z,4.37
2018-05-01T17:52:08.203Z,4.40
2018-05-01T17:54:36.475Z,3.40
2018-05-01T17:57:05.580Z,3.03
2018-05-01T17:59:33.265Z,3.20
2018-05-01T18:02:01.640Z,3.77
2018-05-01T18:04:29.209Z,3.60
2018-05-01T18:06:56.961Z,3.80
2018-05-01T18:09:25.414Z,4.10
2018-05-01T18:11:53.271Z,4.00
2018-05-01T18:14:21.544Z,4.03
2018-05-01T18:16:49.309Z,3.30
2018-05-01T18:19:17.834Z,3.70
2018-05-01T18:21:45.527Z,3.63
2018-05-01T18:24:13.148Z,4.07
2018-05-01T18:26:40.773Z,3.23
2018-05-01T18:29:08.473Z,4.13
2018-05-01T18:31:36.119Z,5.67
2018-05-01T18:34:03.692Z,3.67
2018-05-01T18:36:32.191Z,4.90
2018-05-01T18:38:59.752Z,4.13
2018-05-01T18:41:27.456Z,4.20
2018-05-01T18:43:55.059Z,4.90
2018-05-01T18:46:23.611Z,4.07
2018-05-01T18:48:51.247Z,4.30
2018-05-01T18:51:18.949Z,4.53
2018-05-01T18:53:46.536Z,4.73
2018-05-01T18:56:14.152Z,4.57
2018-05-01T18:58:42.537Z,4.20
2018-05-01T19:01:10.361Z,4.60
2018-05-01T19:03:38.001Z,3.73
2018-05-01T19:06:05.774Z,4.10
2018-05-01T19:08:33.799Z,4.00
2018-05-01T19:11:01.433Z,4.80
2018-05-01T19:13:29.235Z,4.60
2018-05-01T19:15:56.791Z,4.13
2018-05-01T19:18:25.197Z,5.43
2018-05-01T19:20:52.789Z,5.00
2018-05-01T19:23:21.152Z,4.40
2018-05-01T19:25:48.745Z,4.33
2018-05-01T19:28:16.461Z,4.70
2018-05-01T19:30:44.042Z,4.10
2018-05-01T19:33:11.599Z,4.43
2018-05-01T19:35:39.237Z,4.40
2018-05-01T19:38:06.898Z,5.10
2018-05-01T19:40:34.513Z,4.70
2018-05-01T19:43:04.090Z,4.60
2018-05-01T19:45:31.740Z,3.90
2018-05-01T19:47:59.499Z,4.50
2018-05-01T19:50:27.821Z,4.30
2018-05-01T19:52:56.165Z,4.20
2018-05-01T19:55:23.737Z,4.60
2018-05-01T19:57:51.380Z,4.03
2018-05-01T20:00:19.067Z,3.83
2018-05-01T20:02:46.729Z,3.90
2018-05-01T20:05:15.119Z,3.97
2018-05-01T20:07:42.664Z,3.77
2018-05-01T20:10:11.073Z,4.17
2018-05-01T20:12:38.672Z,3.77
2018-05-01T20:15:06.370Z,3.30
2018-05-01T20:17:34.022Z,4.57
2018-05-01T20:20:01.706Z,3.80
2018-05-01T20:22:29.339Z,4.20
2018-05-01T20:24:56.983Z,3.50
2018-05-01T20:27:24.614Z,3.23
2018-05-01T20:29:52.178Z,4.17
2018-05-01T20:32:20.540Z,3.50
2018-05-01T20:34:48.127Z,3.53
2018-05-01T20:37:15.878Z,3.60
2018-05-01T20:39:43.499Z,3.90
2018-05-01T20:42:11.192Z,3.80
2018-05-01T20:44:39.098Z,3.70
2018-05-01T20:47:06.720Z,4.10
2018-05-01T20:49:34.273Z,3.60
2018-05-01T20:52:01.899Z,4.10
2018-05-01T20:54:29.667Z,3.40
2018-05-01T20:56:57.330Z,3.07
2018-05-01T20:59:24.935Z,3.40
2018-05-01T21:01:52.594Z,3.50
2018-05-01T21:04:20.982Z,3.33
2018-05-01T21:06:49.341Z,3.70
2018-05-01T21:09:17.672Z,3.77
2018-05-01T21:11:45.547Z,3.10
2018-05-01T21:14:13.207Z,3.60
2018-05-01T21:16:41.066Z,2.90
2018-05-01T21:19:08.680Z,3.37
2018-05-01T21:21:36.234Z,3.10
2018-05-01T21:24:03.943Z,3.00
2018-05-01T21:26:31.509Z,3.17
2018-05-01T21:28:59.129Z,2.70
2018-05-01T21:31:26.898Z,3.20
2018-05-01T21:33:55.631Z,3.70
2018-05-01T21:36:23.289Z,3.40
2018-05-01T21:38:50.837Z,2.57
2018-05-01T21:41:18.569Z,2.67
2018-05-01T21:43:46.179Z,3.10
2018-05-01T21:46:13.894Z,2.90
2018-05-01T21:48:41.458Z,2.87
2018-05-01T21:51:09.407Z,2.53
2018-05-01T21:53:37.050Z,2.80
2018-05-01T21:56:04.634Z,2.47
2018-05-01T21:58:32.230Z,2.63
2018-05-01T22:00:59.883Z,2.40
2018-05-01T22:03:27.630Z,3.13
2018-05-01T22:05:55.213Z,2.90
2018-05-01T22:08:22.763Z,2.70
2018-05-01T22:10:50.770Z,2.73
2018-05-01T22:13:18.522Z,2.63
2018-05-01T22:15:46.082Z,2.37
2018-05-01T22:18:13.754Z,2.47
2018-05-01T22:20:42.770Z,3.00
2018-05-01T22:23:11.108Z,2.87
2018-05-01T22:25:39.123Z,2.73
2018-05-01T22:28:06.848Z,2.83
2018-05-01T22:30:34.436Z,2.80
2018-05-01T22:33:02.055Z,2.80
2018-05-01T22:35:29.670Z,2.57
2018-05-01T22:37:58.154Z,2.50
2018-05-01T22:40:26.758Z,3.17
2018-05-01T22:42:54.349Z,2.87
2018-05-01T22:45:21.994Z,2.63
2018-05-01T22:47:49.545Z,2.93
2018-05-01T22:50:17.479Z,3.00
2018-05-01T22:52:45.814Z,2.67
2018-05-01T22:55:13.398Z,2.97
2018-05-01T22:57:41.775Z,2.37
2018-05-01T23:00:09.532Z,2.90
2018-05-01T23:02:37.133Z,2.60
2018-05-01T23:05:04.762Z,2.47
2018-05-01T23:07:32.402Z,2.73
2018-05-01T23:09:59.957Z,2.40
2018-05-01T23:12:27.582Z,2.83
2018-05-01T23:14:55.962Z,2.70
2018-05-01T23:17:24.319Z,2.50
2018-05-01T23:19:52.666Z,2.70
2018-05-01T23:22:21.046Z,3.07
2018-05-01T23:24:48.581Z,2.30
2018-05-01T23:27:17.189Z,2.53
2018-05-01T23:29:44.807Z,2.67
2018-05-01T23:32:13.363Z,3.00
2018-05-01T23:34:41.704Z,2.90
2018-05-01T23:37:09.378Z,2.87
2018-05-01T23:39:37.051Z,2.80
2018-05-01T23:42:04.704Z,2.70
2018-05-01T23:44:32.364Z,2.93
2018-05-01T23:46:59.992Z,3.17
2018-05-01T23:49:27.648Z,2.87
2018-05-01T23:51:55.214Z,2.83
2018-05-01T23:54:23.793Z,2.70
2018-05-01T23:56:51.455Z,2.83
2018-05-01T23:59:19.017Z,2.83
